createdAt,value
2019-04-04T00:05:03.142Z,11.27
2019-04-04T00:11:07.446Z,11.37
2019-04-04T00:17:12.884Z,12.30
2019-04-04T00:23:17.134Z,11.27
2019-04-04T00:29:21.342Z,11.67
2019-04-04T00:35:25.654Z,10.27
2019-04-04T00:41:29.920Z,11.70
2019-04-04T00:47:34.215Z,11.10
2019-04-04T00:53:38.888Z,11.57
2019-04-04T00:59:43.098Z,11.63
2019-04-04T01:05:47.396Z,11.63
2019-04-04T01:11:51.833Z,12.77
2019-04-04T01:17:56.280Z,12.17
2019-04-04T01:24:00.782Z,12.60
2019-04-04T01:30:06.622Z,13.07
2019-04-04T01:36:10.812Z,15.77
2019-04-04T01:42:14.999Z,46.93
2019-04-04T01:48:19.378Z,22.83
2019-04-04T01:54:23.620Z,18.67
2019-04-04T02:00:27.815Z,13.13
2019-04-04T02:06:32.037Z,13.50
2019-04-04T02:12:38.523Z,10.77
2019-04-04T02:18:42.222Z,12.40
2019-04-04T02:24:46.473Z,13.60
2019-04-04T02:30:50.745Z,13.57
2019-04-04T02:36:54.963Z,13.93
2019-04-04T02:42:59.435Z,12.97
2019-04-04T02:49:06.446Z,14.27
2019-04-04T02:55:10.653Z,12.43
2019-04-04T03:01:14.996Z,13.93
2019-04-04T03:07:19.159Z,13.40
2019-04-04T03:13:23.639Z,15.17
2019-04-04T03:19:27.825Z,15.70
2019-04-04T03:25:32.067Z,14.87
2019-04-04T03:31:38.484Z,17.77
2019-04-04T03:37:45.945Z,15.33
2019-04-04T03:43:49.114Z,15.97
2019-04-04T03:49:56.498Z,15.03
2019-04-04T03:56:01.265Z,21.17
2019-04-04T04:02:05.486Z,18.50
2019-04-04T04:08:09.684Z,16.27
2019-04-04T04:14:14.077Z,16.17
2019-04-04T04:20:18.256Z,16.50
2019-04-04T04:26:22.589Z,19.67
2019-04-04T04:32:26.840Z,18.87
2019-04-04T04:38:31.116Z,17.40
2019-04-04T04:44:37.668Z,20.47
2019-04-04T04:50:41.258Z,18.77
2019-04-04T04:56:45.534Z,23.13
2019-04-04T05:02:52.788Z,22.97
2019-04-04T05:08:55.727Z,20.73
2019-04-04T05:15:01.278Z,24.87
2019-04-04T05:21:05.867Z,25.43
2019-04-04T05:27:10.239Z,23.63
2019-04-04T05:33:14.482Z,27.37
2019-04-04T05:39:19.450Z,26.97
2019-04-04T05:45:23.763Z,24.10
2019-04-04T05:51:28.041Z,23.37
2019-04-04T05:57:32.202Z,21.77
2019-04-04T06:03:36.425Z,22.30
2019-04-04T06:09:42.004Z,21.90
2019-04-04T06:15:46.405Z,24.50
2019-04-04T06:21:50.574Z,22.33
2019-04-04T06:27:54.971Z,19.43
2019-04-04T06:33:59.239Z,18.27
2019-04-04T06:40:03.727Z,20.10
2019-04-04T06:46:07.913Z,21.50
2019-04-04T06:52:12.091Z,19.23
2019-04-04T06:58:17.144Z,17.33
2019-04-04T07:04:21.553Z,17.93
2019-04-04T07:10:25.745Z,16.00
2019-04-04T07:16:30.151Z,12.20
2019-04-04T07:22:34.328Z,16.20
2019-04-04T07:28:38.631Z,13.30
2019-04-04T07:34:45.052Z,13.45
2019-04-04T07:40:48.776Z,13.20
2019-04-04T07:46:52.972Z,11.12
2019-04-04T07:52:57.152Z,12.03
2019-04-04T07:59:01.577Z,11.15
2019-04-04T08:05:06.480Z,8.45
2019-04-04T08:11:13.214Z,8.58
2019-04-04T08:17:18.910Z,8.23
2019-04-04T08:23:22.693Z,7.72
2019-04-04T08:29:26.891Z,4.60
2019-04-04T08:35:31.099Z,5.17
2019-04-04T08:41:35.396Z,7.92
2019-04-04T08:47:39.752Z,7.67
2019-04-04T08:53:43.924Z,5.33
2019-04-04T08:59:48.220Z,7.12
2019-04-04T09:05:52.471Z,5.10
2019-04-04T09:11:56.750Z,5.90
2019-04-04T09:18:01.365Z,8.35
2019-04-04T09:24:05.545Z,6.47
2019-04-04T09:30:10.220Z,8.43
2019-04-04T09:36:14.386Z,4.22
2019-04-04T09:42:18.647Z,4.47
2019-04-04T09:48:22.853Z,7.00
2019-04-04T09:54:27.266Z,5.37
2019-04-04T10:00:31.568Z,6.25
2019-04-04T10:06:35.756Z,4.17
2019-04-04T10:12:39.934Z,4.12
2019-04-04T10:18:44.255Z,5.90
2019-04-04T10:24:48.407Z,5.47
2019-04-04T10:30:52.875Z,3.25
2019-04-04T10:36:57.069Z,2.60
2019-04-04T10:43:01.462Z,3.20
2019-04-04T10:49:08.249Z,3.12
2019-04-04T10:55:11.710Z,3.08
2019-04-04T11:01:16.001Z,3.30
2019-04-04T11:07:20.180Z,2.90
2019-04-04T11:13:33.467Z,2.08
2019-04-04T11:19:31.280Z,5.80
2019-04-04T11:25:35.891Z,2.35
2019-04-04T11:31:40.075Z,2.58
2019-04-04T11:37:44.338Z,4.35
2019-04-04T11:43:48.575Z,4.92
2019-04-04T11:49:52.859Z,2.12
2019-04-04T11:55:57.123Z,3.10
2019-04-04T12:02:01.482Z,3.58
2019-04-04T12:08:05.691Z,2.45
2019-04-04T12:14:10.012Z,4.47
2019-04-04T12:20:14.834Z,5.10
2019-04-04T12:26:19.029Z,4.25
2019-04-04T12:32:23.273Z,4.00
2019-04-04T12:38:27.548Z,4.37
2019-04-04T12:44:31.794Z,3.47
2019-04-04T12:50:36.012Z,2.90
2019-04-04T12:56:40.428Z,5.20
2019-04-04T13:02:44.616Z,2.95
2019-04-04T13:08:48.952Z,2.42
2019-04-04T13:14:53.172Z,2.80
2019-04-04T13:20:57.496Z,2.50
2019-04-04T13:27:01.702Z,3.87
2019-04-04T13:33:06.020Z,1.92
2019-04-04T13:39:11.092Z,2.47
2019-04-04T13:45:15.346Z,2.87
2019-04-04T13:51:21.136Z,3.77
2019-04-04T13:57:25.556Z,1.85
2019-04-04T14:03:29.986Z,2.67
2019-04-04T14:09:34.352Z,2.40
2019-04-04T14:15:38.624Z,1.70
2019-04-04T14:21:42.919Z,2.45
2019-04-04T14:27:47.194Z,5.03
2019-04-04T14:33:51.406Z,3.92
2019-04-04T14:39:55.626Z,2.00
2019-04-04T14:45:59.883Z,2.77
2019-04-04T14:52:04.089Z,3.47
2019-04-04T14:58:08.283Z,2.87
2019-04-04T15:04:12.760Z,1.45
2019-04-04T15:10:17.049Z,2.20
2019-04-04T15:16:21.243Z,1.75
2019-04-04T15:22:25.648Z,4.28
2019-04-04T15:28:29.957Z,2.85
2019-04-04T15:34:34.131Z,3.77
2019-04-04T15:40:38.335Z,4.22
2019-04-04T15:46:42.537Z,3.15
2019-04-04T15:52:46.967Z,1.60
2019-04-04T15:58:51.463Z,3.70
2019-04-04T16:04:55.678Z,4.10
2019-04-04T16:10:59.926Z,3.83
2019-04-04T16:17:04.149Z,3.15
2019-04-04T16:23:08.334Z,3.95
2019-04-04T16:29:12.524Z,4.10
2019-04-04T16:35:16.721Z,4.97
2019-04-04T16:41:21.068Z,4.53
2019-04-04T16:47:25.280Z,3.90
2019-04-04T16:53:30.024Z,4.28
2019-04-04T16:59:34.366Z,4.55
2019-04-04T17:05:39.572Z,3.90
2019-04-04T17:11:43.830Z,4.10
2019-04-04T17:17:48.054Z,5.92
2019-04-04T17:23:52.232Z,10.90
2019-04-04T17:29:56.741Z,4.50
2019-04-04T17:36:01.339Z,8.05
2019-04-04T17:42:05.798Z,6.70
2019-04-04T17:48:10.070Z,6.20
2019-04-04T17:54:14.401Z,6.72
2019-04-04T18:00:20.719Z,6.58
2019-04-04T18:06:25.006Z,6.30
2019-04-04T18:12:39.621Z,6.78
2019-04-04T18:18:35.726Z,6.30
2019-04-04T18:24:41.833Z,6.83
2019-04-04T18:30:46.484Z,6.87
2019-04-04T18:36:50.904Z,8.55
2019-04-04T18:42:55.109Z,7.90
2019-04-04T18:48:59.306Z,8.20
2019-04-04T18:55:03.571Z,7.95
2019-04-04T19:01:08.153Z,7.78
2019-04-04T19:07:12.573Z,9.60
2019-04-04T19:13:16.967Z,9.98
2019-04-04T19:19:21.369Z,9.93
2019-04-04T19:25:26.753Z,10.63
2019-04-04T19:31:31.031Z,10.88
2019-04-04T19:37:35.359Z,10.75
2019-04-04T19:43:39.595Z,11.05
2019-04-04T19:49:43.926Z,11.57
2019-04-04T19:55:48.165Z,13.70
2019-04-04T20:01:52.522Z,13.10
2019-04-04T20:07:56.844Z,13.18
2019-04-04T20:14:01.066Z,14.98
2019-04-04T20:20:06.194Z,13.05
2019-04-04T20:26:10.611Z,13.45
2019-04-04T20:32:14.933Z,13.13
2019-04-04T20:38:19.196Z,12.25
2019-04-04T20:44:23.442Z,12.60
2019-04-04T20:50:27.717Z,12.68
2019-04-04T20:56:31.912Z,12.07
2019-04-04T21:02:36.250Z,11.97
2019-04-04T21:08:40.478Z,11.78
2019-04-04T21:14:44.798Z,12.78
2019-04-04T21:20:48.982Z,12.35
2019-04-04T21:26:53.421Z,12.63
2019-04-04T21:32:57.890Z,12.33
2019-04-04T21:39:02.202Z,13.83
2019-04-04T21:45:07.605Z,47.55
2019-04-04T21:51:11.953Z,16.00
2019-04-04T21:57:16.479Z,23.73
2019-04-04T22:03:20.999Z,17.35
2019-04-04T22:09:25.414Z,14.37
2019-04-04T22:15:29.788Z,13.88
2019-04-04T22:21:34.235Z,13.22
2019-04-04T22:27:38.663Z,12.95
2019-04-04T22:33:42.980Z,14.00
2019-04-04T22:39:47.321Z,14.83
2019-04-04T22:45:51.662Z,12.90
2019-04-04T22:51:56.238Z,13.07
2019-04-04T22:58:00.630Z,12.43
2019-04-04T23:04:05.326Z,13.57
2019-04-04T23:10:11.614Z,14.00
2019-04-04T23:16:17.112Z,13.60
2019-04-04T23:22:21.930Z,14.70
2019-04-04T23:28:26.685Z,13.27
2019-04-04T23:34:31.480Z,14.00
2019-04-04T23:40:36.233Z,14.30
2019-04-04T23:46:41.025Z,17.33
2019-04-04T23:52:45.748Z,15.43
2019-04-04T23:58:50.446Z,15.03
